sensor_id;sensor_type;location;lat;lon;timestamp;pressure;altitude;pressure_sealevel;temperature;humidity
70127;BME280;57491;42.694;23.314;2023-01-27T00:02:20;94309.53;;;3.91;68.68
70127;BME280;57491;42.694;23.314;2023-01-27T00:04:47;94313.69;;;3.92;67.83
70127;BME280;57491;42.694;23.314;2023-01-27T00:07:14;94314.81;;;3.89;69.78
70127;BME280;57491;42.694;23.314;2023-01-27T00:09:42;94315.66;;;3.98;70.22
70127;BME280;57491;42.694;23.314;2023-01-27T00:12:17;94306.84;;;4.00;70.12
70127;BME280;57491;42.694;23.314;2023-01-27T00:15:03;94306.50;;;4.03;71.96
70127;BME280;57491;42.694;23.314;2023-01-27T00:17:32;94300.41;;;4.04;70.97
70127;BME280;57491;42.694;23.314;2023-01-27T00:19:59;94296.53;;;4.00;70.40
70127;BME280;57491;42.694;23.314;2023-01-27T00:22:26;94302.00;;;4.05;70.75
70127;BME280;57491;42.694;23.314;2023-01-27T00:25:11;94280.31;;;4.08;71.05
70127;BME280;57491;42.694;23.314;2023-01-27T00:27:38;94273.69;;;3.97;70.95
70127;BME280;57491;42.694;23.314;2023-01-27T00:30:06;94282.22;;;3.98;71.92
70127;BME280;57491;42.694;23.314;2023-01-27T00:32:35;94278.22;;;3.95;71.03
70127;BME280;57491;42.694;23.314;2023-01-27T00:35:20;94282.22;;;3.98;70.28
70127;BME280;57491;42.694;23.314;2023-01-27T00:37:47;94285.28;;;4.01;71.11
70127;BME280;57491;42.694;23.314;2023-01-27T00:40:16;94293.16;;;4.00;70.89
70127;BME280;57491;42.694;23.314;2023-01-27T00:42:43;94279.16;;;3.94;71.30
70127;BME280;57491;42.694;23.314;2023-01-27T00:45:13;94278.22;;;3.95;70.83
70127;BME280;57491;42.694;23.314;2023-01-27T00:47:59;94272.41;;;3.93;69.82
70127;BME280;57491;42.694;23.314;2023-01-27T00:50:26;94287.84;;;3.93;70.77
70127;BME280;57491;42.694;23.314;2023-01-27T00:52:53;94293.94;;;3.92;70.68
70127;BME280;57491;42.694;23.314;2023-01-27T00:55:22;94290.75;;;3.98;70.77
70127;BME280;57491;42.694;23.314;2023-01-27T00:57:49;94288.81;;;4.00;70.58
70127;BME280;57491;42.694;23.314;2023-01-27T01:00:17;94279.97;;;3.95;70.29
70127;BME280;57491;42.694;23.314;2023-01-27T01:02:44;94287.84;;;3.93;70.90
70127;BME280;57491;42.694;23.314;2023-01-27T01:05:12;94282.19;;;3.90;71.78
70127;BME280;57491;42.694;23.314;2023-01-27T01:07:40;94286.22;;;3.92;71.00
70127;BME280;57491;42.694;23.314;2023-01-27T01:10:08;94278.22;;;3.95;71.32
70127;BME280;57491;42.694;23.314;2023-01-27T01:12:35;94278.16;;;3.87;70.94
70127;BME280;57491;42.694;23.314;2023-01-27T01:15:03;94278.16;;;3.87;71.27
70127;BME280;57491;42.694;23.314;2023-01-27T01:17:30;94285.72;;;3.89;71.25
70127;BME280;57491;42.694;23.314;2023-01-27T01:19:57;94283.50;;;3.86;70.83
70127;BME280;57491;42.694;23.314;2023-01-27T01:22:26;94285.25;;;3.85;71.24
70127;BME280;57491;42.694;23.314;2023-01-27T01:24:53;94279.78;;;3.88;70.10
70127;BME280;57491;42.694;23.314;2023-01-27T01:27:20;94285.28;;;4.01;71.55
70127;BME280;57491;42.694;23.314;2023-01-27T01:29:47;94275.50;;;4.05;69.41
70127;BME280;57491;42.694;23.314;2023-01-27T01:32:14;94278.38;;;4.10;70.85
70127;BME280;57491;42.694;23.314;2023-01-27T01:34:42;94280.16;;;4.10;68.81
70127;BME280;57491;42.694;23.314;2023-01-27T01:37:09;94285.91;;;3.95;68.23
70127;BME280;57491;42.694;23.314;2023-01-27T01:39:38;94286.69;;;3.80;69.11
70127;BME280;57491;42.694;23.314;2023-01-27T01:42:05;94295.81;;;3.74;69.89
70127;BME280;57491;42.694;23.314;2023-01-27T01:44:32;94295.50;;;3.77;69.32
70127;BME280;57491;42.694;23.314;2023-01-27T01:46:59;94298.69;;;3.71;69.58
70127;BME280;57491;42.694;23.314;2023-01-27T01:49:29;94298.69;;;3.71;69.37
70127;BME280;57491;42.694;23.314;2023-01-27T01:52:00;94295.44;;;3.61;69.41
70127;BME280;57491;42.694;23.314;2023-01-27T01:54:30;94294.00;;;3.58;70.10
70127;BME280;57491;42.694;23.314;2023-01-27T01:57:03;94274.13;;;3.69;71.30
70127;BME280;57491;42.694;23.314;2023-01-27T01:59:33;94280.56;;;3.73;70.10
70127;BME280;57491;42.694;23.314;2023-01-27T02:02:05;94271.38;;;3.62;69.03
70127;BME280;57491;42.694;23.314;2023-01-27T02:04:37;94280.97;;;3.52;69.69
70127;BME280;57491;42.694;23.314;2023-01-27T02:07:12;94262.31;;;3.42;70.00
70127;BME280;57491;42.694;23.314;2023-01-27T02:09:41;94252.22;;;3.48;70.03
70127;BME280;57491;42.694;23.314;2023-01-27T02:12:10;94257.81;;;3.44;70.06
70127;BME280;57491;42.694;23.314;2023-01-27T02:14:38;94238.69;;;3.38;70.46
70127;BME280;57491;42.694;23.314;2023-01-27T02:17:07;94235.94;;;3.32;69.71
70127;BME280;57491;42.694;23.314;2023-01-27T02:19:41;94238.84;;;3.29;69.68
70127;BME280;57491;42.694;23.314;2023-01-27T02:22:21;94233.38;;;3.32;69.70
70127;BME280;57491;42.694;23.314;2023-01-27T02:24:54;94213.78;;;3.31;71.22
70127;BME280;57491;42.694;23.314;2023-01-27T02:27:27;94220.03;;;3.28;70.47
70127;BME280;57491;42.694;23.314;2023-01-27T02:29:54;94216.63;;;3.20;70.42
70127;BME280;57491;42.694;23.314;2023-01-27T02:32:23;94220.44;;;3.15;70.45
70127;BME280;57491;42.694;23.314;2023-01-27T02:34:51;94221.56;;;3.13;70.95
70127;BME280;57491;42.694;23.314;2023-01-27T02:37:19;94219.16;;;3.11;71.46
70127;BME280;57491;42.694;23.314;2023-01-27T02:39:49;94226.72;;;3.13;70.66
70127;BME280;57491;42.694;23.314;2023-01-27T02:42:18;94215.75;;;3.03;71.04
70127;BME280;57491;42.694;23.314;2023-01-27T02:44:47;94209.31;;;2.99;71.10
70127;BME280;57491;42.694;23.314;2023-01-27T02:47:14;94230.66;;;2.99;71.32
70127;BME280;57491;42.694;23.314;2023-01-27T02:49:41;94228.25;;;2.98;71.50
70127;BME280;57491;42.694;23.314;2023-01-27T02:52:09;94233.91;;;3.01;71.53
70127;BME280;57491;42.694;23.314;2023-01-27T02:54:36;94239.03;;;3.01;71.40
70127;BME280;57491;42.694;23.314;2023-01-27T02:57:03;94245.47;;;3.05;71.49
70127;BME280;57491;42.694;23.314;2023-01-27T02:59:30;94226.84;;;3.11;72.25
70127;BME280;57491;42.694;23.314;2023-01-27T03:01:58;94225.78;;;3.22;71.58
70127;BME280;57491;42.694;23.314;2023-01-27T03:04:25;94233.50;;;3.30;71.30
70127;BME280;57491;42.694;23.314;2023-01-27T03:06:52;94223.41;;;3.29;70.38
70127;BME280;57491;42.694;23.314;2023-01-27T03:09:20;94222.44;;;3.30;70.19
70127;BME280;57491;42.694;23.314;2023-01-27T03:11:47;94224.66;;;3.25;70.04
70127;BME280;57491;42.694;23.314;2023-01-27T03:14:31;94214.72;;;3.30;70.09
70127;BME280;57491;42.694;23.314;2023-01-27T03:17:17;94205.44;;;3.29;70.51
70127;BME280;57491;42.694;23.314;2023-01-27T03:20:02;94205.13;;;3.32;70.81
70127;BME280;57491;42.694;23.314;2023-01-27T03:22:29;94199.16;;;3.31;71.28
70127;BME280;57491;42.694;23.314;2023-01-27T03:24:56;94196.94;;;3.36;70.62
70127;BME280;57491;42.694;23.314;2023-01-27T03:27:23;94195.16;;;3.29;70.67
70127;BME280;57491;42.694;23.314;2023-01-27T03:29:51;94191.47;;;3.31;70.68
70127;BME280;57491;42.694;23.314;2023-01-27T03:32:22;94190.66;;;3.31;70.41
70127;BME280;57491;42.694;23.314;2023-01-27T03:34:50;94187.41;;;3.21;70.74
70127;BME280;57491;42.694;23.314;2023-01-27T03:37:17;94182.59;;;3.26;72.29
70127;BME280;57491;42.694;23.314;2023-01-27T03:40:03;94183.59;;;3.33;71.00
70127;BME280;57491;42.694;23.314;2023-01-27T03:42:51;94177.66;;;3.32;73.20
70127;BME280;57491;42.694;23.314;2023-01-27T03:45:35;94167.84;;;3.28;71.98
70127;BME280;57491;42.694;23.314;2023-01-27T03:48:21;94155.69;;;3.46;74.04
70127;BME280;57491;42.694;23.314;2023-01-27T03:50:48;94157.31;;;3.55;74.13
70127;BME280;57491;42.694;23.314;2023-01-27T03:53:18;94162.78;;;3.60;74.27
70127;BME280;57491;42.694;23.314;2023-01-27T03:55:46;94161.84;;;3.69;74.69
70127;BME280;57491;42.694;23.314;2023-01-27T03:58:17;94161.66;;;3.71;72.96
70127;BME280;57491;42.694;23.314;2023-01-27T04:00:46;94155.69;;;3.78;74.07
70127;BME280;57491;42.694;23.314;2023-01-27T04:03:15;94161.50;;;3.88;73.45
70127;BME280;57491;42.694;23.314;2023-01-27T04:06:03;94175.00;;;3.90;72.64
70127;BME280;57491;42.694;23.314;2023-01-27T04:08:48;94193.34;;;3.95;71.62
70127;BME280;57491;42.694;23.314;2023-01-27T04:11:16;94192.06;;;3.91;70.27
70127;BME280;57491;42.694;23.314;2023-01-27T04:14:01;94202.34;;;3.91;69.15
70127;BME280;57491;42.694;23.314;2023-01-27T04:16:28;94215.50;;;3.80;68.32
70127;BME280;57491;42.694;23.314;2023-01-27T04:18:56;94236.06;;;3.72;67.35
70127;BME280;57491;42.694;23.314;2023-01-27T04:21:25;94224.81;;;3.73;68.77
70127;BME280;57491;42.694;23.314;2023-01-27T04:23:55;94236.38;;;3.69;69.12
70127;BME280;57491;42.694;23.314;2023-01-27T04:26:23;94221.91;;;3.76;70.77
70127;BME280;57491;42.694;23.314;2023-01-27T04:28:50;94235.72;;;3.83;70.02
70127;BME280;57491;42.694;23.314;2023-01-27T04:31:17;94246.22;;;3.90;70.13
70127;BME280;57491;42.694;23.314;2023-01-27T04:33:44;94247.81;;;3.91;69.69
70127;BME280;57491;42.694;23.314;2023-01-27T04:36:11;94250.22;;;3.92;68.87
70127;BME280;57491;42.694;23.314;2023-01-27T04:38:40;94247.00;;;3.90;68.34
70127;BME280;57491;42.694;23.314;2023-01-27T04:41:07;94246.69;;;4.01;70.98
70127;BME280;57491;42.694;23.314;2023-01-27T04:43:34;94244.44;;;4.15;71.95
70127;BME280;57491;42.694;23.314;2023-01-27T04:46:02;94254.59;;;4.24;70.69
70127;BME280;57491;42.694;23.314;2023-01-27T04:48:29;94250.56;;;4.22;69.58
70127;BME280;57491;42.694;23.314;2023-01-27T04:50:56;94240.91;;;4.16;70.44
70127;BME280;57491;42.694;23.314;2023-01-27T04:53:23;94241.56;;;4.10;70.76
70127;BME280;57491;42.694;23.314;2023-01-27T04:55:52;94259.25;;;4.13;71.55
70127;BME280;57491;42.694;23.314;2023-01-27T04:58:26;94261.97;;;4.11;68.02
70127;BME280;57491;42.694;23.314;2023-01-27T05:00:53;94258.28;;;4.14;71.66
70127;BME280;57491;42.694;23.314;2023-01-27T05:03:20;94243.50;;;4.24;71.10
70127;BME280;57491;42.694;23.314;2023-01-27T05:05:47;94246.88;;;4.16;70.94
70127;BME280;57491;42.694;23.314;2023-01-27T05:08:14;94255.72;;;4.14;68.80
70127;BME280;57491;42.694;23.314;2023-01-27T05:10:42;94267.94;;;4.20;69.59
70127;BME280;57491;42.694;23.314;2023-01-27T05:13:11;94251.53;;;4.21;71.10
70127;BME280;57491;42.694;23.314;2023-01-27T05:15:38;94247.03;;;4.31;71.40
70127;BME280;57491;42.694;23.314;2023-01-27T05:18:05;94239.94;;;4.33;71.01
70127;BME280;57491;42.694;23.314;2023-01-27T05:20:32;94244.94;;;4.34;70.59
70127;BME280;57491;42.694;23.314;2023-01-27T05:23:00;94253.94;;;4.30;68.19
70127;BME280;57491;42.694;23.314;2023-01-27T05:25:42;94251.88;;;4.26;69.38
70127;BME280;57491;42.694;23.314;2023-01-27T05:28:10;94244.97;;;4.18;67.86
70127;BME280;57491;42.694;23.314;2023-01-27T05:30:37;94227.72;;;4.11;72.04
70127;BME280;57491;42.694;23.314;2023-01-27T05:33:05;94232.56;;;4.14;72.92
70127;BME280;57491;42.694;23.314;2023-01-27T05:35:33;94237.53;;;4.15;71.75
70127;BME280;57491;42.694;23.314;2023-01-27T05:38:00;94226.16;;;4.10;69.10
70127;BME280;57491;42.694;23.314;2023-01-27T05:40:27;94222.91;;;4.16;69.61
70127;BME280;57491;42.694;23.314;2023-01-27T05:42:54;94219.88;;;4.12;68.69
70127;BME280;57491;42.694;23.314;2023-01-27T05:45:22;94214.88;;;3.86;68.89
70127;BME280;57491;42.694;23.314;2023-01-27T05:47:50;94212.78;;;3.82;70.44
70127;BME280;57491;42.694;23.314;2023-01-27T05:50:17;94220.78;;;3.79;70.81
70127;BME280;57491;42.694;23.314;2023-01-27T05:52:45;94227.34;;;3.65;69.74
70127;BME280;57491;42.694;23.314;2023-01-27T05:55:12;94227.81;;;3.60;70.79
70127;BME280;57491;42.694;23.314;2023-01-27T05:57:39;94238.75;;;3.63;71.14
70127;BME280;57491;42.694;23.314;2023-01-27T06:00:07;94221.69;;;3.45;69.49
70127;BME280;57491;42.694;23.314;2023-01-27T06:02:35;94232.78;;;3.46;69.15
70127;BME280;57491;42.694;23.314;2023-01-27T06:05:03;94253.63;;;3.43;69.38
70127;BME280;57491;42.694;23.314;2023-01-27T06:07:30;94244.00;;;3.37;70.55
70127;BME280;57491;42.694;23.314;2023-01-27T06:09:57;94243.22;;;3.52;72.92
70127;BME280;57491;42.694;23.314;2023-01-27T06:12:24;94226.84;;;3.62;71.70
70127;BME280;57491;42.694;23.314;2023-01-27T06:14:51;94234.91;;;3.67;71.33
70127;BME280;57491;42.694;23.314;2023-01-27T06:17:23;94236.03;;;3.64;69.95
70127;BME280;57491;42.694;23.314;2023-01-27T06:19:51;94240.25;;;3.73;71.43
70127;BME280;57491;42.694;23.314;2023-01-27T06:22:18;94240.53;;;3.78;71.28
70127;BME280;57491;42.694;23.314;2023-01-27T06:24:45;94247.47;;;3.78;69.40
70127;BME280;57491;42.694;23.314;2023-01-27T06:27:12;94260.63;;;3.83;69.87
70127;BME280;57491;42.694;23.314;2023-01-27T06:29:40;94257.63;;;3.95;71.55
70127;BME280;57491;42.694;23.314;2023-01-27T06:32:07;94244.28;;;4.00;69.90
70127;BME280;57491;42.694;23.314;2023-01-27T06:34:34;94257.16;;;4.00;67.99
70127;BME280;57491;42.694;23.314;2023-01-27T06:37:03;94256.50;;;3.90;67.03
70127;BME280;57491;42.694;23.314;2023-01-27T06:39:30;94245.38;;;3.81;68.91
70127;BME280;57491;42.694;23.314;2023-01-27T06:41:57;94248.91;;;3.80;67.39
70127;BME280;57491;42.694;23.314;2023-01-27T06:44:24;94253.59;;;3.85;70.83
70127;BME280;57491;42.694;23.314;2023-01-27T06:46:51;94259.22;;;3.88;67.02
70127;BME280;57491;42.694;23.314;2023-01-27T06:49:18;94253.41;;;3.78;68.70
70127;BME280;57491;42.694;23.314;2023-01-27T06:51:45;94246.81;;;3.84;70.68
70127;BME280;57491;42.694;23.314;2023-01-27T06:54:13;94254.06;;;3.88;68.89
70127;BME280;57491;42.694;23.314;2023-01-27T06:56:41;94262.13;;;3.93;68.08
70127;BME280;57491;42.694;23.314;2023-01-27T06:59:08;94260.50;;;3.92;66.91
70127;BME280;57491;42.694;23.314;2023-01-27T07:01:35;94261.78;;;3.96;69.66
70127;BME280;57491;42.694;23.314;2023-01-27T07:04:02;94259.22;;;3.96;67.56
70127;BME280;57491;42.694;23.314;2023-01-27T07:06:29;94273.69;;;3.97;66.57
70127;BME280;57491;42.694;23.314;2023-01-27T07:08:56;94270.97;;;3.99;68.75
70127;BME280;57491;42.694;23.314;2023-01-27T07:11:24;94266.31;;;4.11;68.86
70127;BME280;57491;42.694;23.314;2023-01-27T07:13:51;94278.84;;;4.05;65.47
70127;BME280;57491;42.694;23.314;2023-01-27T07:16:18;94279.81;;;4.04;68.13
70127;BME280;57491;42.694;23.314;2023-01-27T07:18:45;94270.81;;;4.09;65.50
70127;BME280;57491;42.694;23.314;2023-01-27T07:21:13;94261.16;;;4.11;65.30
70127;BME280;57491;42.694;23.314;2023-01-27T07:23:40;94253.78;;;4.16;66.18
70127;BME280;57491;42.694;23.314;2023-01-27T07:26:07;94263.59;;;4.12;65.44
70127;BME280;57491;42.694;23.314;2023-01-27T07:28:35;94259.25;;;4.04;65.78
70127;BME280;57491;42.694;23.314;2023-01-27T07:31:02;94262.78;;;4.03;66.27
70127;BME280;57491;42.694;23.314;2023-01-27T07:33:29;94260.53;;;4.09;66.44
70127;BME280;57491;42.694;23.314;2023-01-27T07:35:57;94259.59;;;4.18;68.00
70127;BME280;57491;42.694;23.314;2023-01-27T07:38:24;94264.72;;;4.18;66.45
70127;BME280;57491;42.694;23.314;2023-01-27T07:40:51;94267.13;;;4.19;65.78
70127;BME280;57491;42.694;23.314;2023-01-27T07:43:18;94269.72;;;4.27;66.50
70127;BME280;57491;42.694;23.314;2023-01-27T07:45:47;94270.03;;;4.32;66.71
70127;BME280;57491;42.694;23.314;2023-01-27T07:48:15;94271.78;;;4.16;64.87
70127;BME280;57491;42.694;23.314;2023-01-27T07:50:42;94272.13;;;4.04;64.95
70127;BME280;57491;42.694;23.314;2023-01-27T07:53:10;94262.13;;;4.01;66.47
70127;BME280;57491;42.694;23.314;2023-01-27T07:55:37;94264.88;;;4.08;65.89
70127;BME280;57491;42.694;23.314;2023-01-27T07:58:05;94279.16;;;4.11;66.53
70127;BME280;57491;42.694;23.314;2023-01-27T08:00:32;94265.50;;;4.10;66.19
70127;BME280;57491;42.694;23.314;2023-01-27T08:03:02;94277.13;;;4.22;65.60
70127;BME280;57491;42.694;23.314;2023-01-27T08:05:32;94263.44;;;4.22;65.20
70127;BME280;57491;42.694;23.314;2023-01-27T08:07:59;94275.03;;;4.26;63.94
70127;BME280;57491;42.694;23.314;2023-01-27T08:10:30;94265.84;;;4.15;63.58
70127;BME280;57491;42.694;23.314;2023-01-27T08:12:57;94262.31;;;4.24;66.01
70127;BME280;57491;42.694;23.314;2023-01-27T08:15:24;94263.59;;;4.44;64.81
70127;BME280;57491;42.694;23.314;2023-01-27T08:17:54;94264.56;;;4.68;66.38
70127;BME280;57491;42.694;23.314;2023-01-27T08:20:24;94261.47;;;4.88;65.32
70127;BME280;57491;42.694;23.314;2023-01-27T08:22:52;94254.50;;;5.05;65.24
70127;BME280;57491;42.694;23.314;2023-01-27T08:25:19;94255.97;;;5.00;63.86
70127;BME280;57491;42.694;23.314;2023-01-27T08:27:48;94266.91;;;5.02;64.49
70127;BME280;57491;42.694;23.314;2023-01-27T08:30:16;94273.34;;;5.06;63.84
70127;BME280;57491;42.694;23.314;2023-01-27T08:32:44;94272.72;;;5.04;65.23
70127;BME280;57491;42.694;23.314;2023-01-27T08:35:11;94269.78;;;5.07;60.90
70127;BME280;57491;42.694;23.314;2023-01-27T08:37:39;94263.38;;;4.94;62.02
70127;BME280;57491;42.694;23.314;2023-01-27T08:40:07;94278.84;;;4.94;65.10
70127;BME280;57491;42.694;23.314;2023-01-27T08:42:34;94283.34;;;4.92;66.08
70127;BME280;57491;42.694;23.314;2023-01-27T08:45:02;94291.91;;;4.85;61.44
70127;BME280;57491;42.694;23.314;2023-01-27T08:47:30;94290.94;;;4.70;65.86
70127;BME280;57491;42.694;23.314;2023-01-27T08:49:57;94291.41;;;4.73;61.84
70127;BME280;57491;42.694;23.314;2023-01-27T08:52:25;94280.16;;;4.74;65.43
70127;BME280;57491;42.694;23.314;2023-01-27T08:54:53;94286.75;;;4.77;61.39
70127;BME280;57491;42.694;23.314;2023-01-27T08:57:20;94286.94;;;4.67;61.96
70127;BME280;57491;42.694;23.314;2023-01-27T08:59:48;94277.44;;;4.52;62.51
70127;BME280;57491;42.694;23.314;2023-01-27T09:02:16;94283.25;;;4.45;61.87
70127;BME280;57491;42.694;23.314;2023-01-27T09:04:43;94284.84;;;4.55;62.70
70127;BME280;57491;42.694;23.314;2023-01-27T09:07:10;94278.25;;;4.44;61.22
70127;BME280;57491;42.694;23.314;2023-01-27T09:09:37;94270.53;;;4.36;64.64
70127;BME280;57491;42.694;23.314;2023-01-27T09:12:06;94276.16;;;4.31;62.73
70127;BME280;57491;42.694;23.314;2023-01-27T09:14:33;94278.88;;;4.30;62.89
70127;BME280;57491;42.694;23.314;2023-01-27T09:17:00;94274.06;;;4.27;62.66
70127;BME280;57491;42.694;23.314;2023-01-27T09:19:27;94278.88;;;4.30;63.48
70127;BME280;57491;42.694;23.314;2023-01-27T09:21:54;94270.69;;;4.18;62.82
70127;BME280;57491;42.694;23.314;2023-01-27T09:24:21;94272.25;;;4.19;62.93
70127;BME280;57491;42.694;23.314;2023-01-27T09:26:48;94271.78;;;4.16;62.80
70127;BME280;57491;42.694;23.314;2023-01-27T09:29:17;94272.44;;;4.10;63.99
70127;BME280;57491;42.694;23.314;2023-01-27T09:31:44;94258.63;;;4.19;64.25
70127;BME280;57491;42.694;23.314;2023-01-27T09:34:11;94262.31;;;4.16;64.71
70127;BME280;57491;42.694;23.314;2023-01-27T09:36:41;94261.19;;;4.19;64.72
70127;BME280;57491;42.694;23.314;2023-01-27T09:39:10;94245.59;;;4.12;64.70
70127;BME280;57491;42.694;23.314;2023-01-27T09:42:07;94244.44;;;4.15;64.92
70127;BME280;57491;42.694;23.314;2023-01-27T09:44:51;94245.41;;;4.05;66.33
70127;BME280;57491;42.694;23.314;2023-01-27T09:47:39;94237.53;;;4.07;64.57
70127;BME280;57491;42.694;23.314;2023-01-27T09:50:19;94237.22;;;4.10;66.44
70127;BME280;57491;42.694;23.314;2023-01-27T09:53:05;94242.06;;;4.05;64.34
70127;BME280;57491;42.694;23.314;2023-01-27T09:55:42;94234.16;;;4.07;65.46
70127;BME280;57491;42.694;23.314;2023-01-27T09:58:15;94232.56;;;4.14;64.90
70127;BME280;57491;42.694;23.314;2023-01-27T10:00:53;94231.91;;;4.03;66.22
70127;BME280;57491;42.694;23.314;2023-01-27T10:03:28;94222.59;;;4.11;67.05
70127;BME280;57491;42.694;23.314;2023-01-27T10:06:25;94219.88;;;4.12;64.52
70127;BME280;57491;42.694;23.314;2023-01-27T10:09:21;94213.28;;;4.18;65.26
70127;BME280;57491;42.694;23.314;2023-01-27T10:12:08;94217.28;;;4.28;69.02
70127;BME280;57491;42.694;23.314;2023-01-27T10:14:44;94202.47;;;4.38;67.04
70127;BME280;57491;42.694;23.314;2023-01-27T10:17:28;94207.78;;;4.45;63.71
70127;BME280;57491;42.694;23.314;2023-01-27T10:20:08;94200.25;;;4.27;63.20
70127;BME280;57491;42.694;23.314;2023-01-27T10:22:46;94220.97;;;4.42;64.83
70127;BME280;57491;42.694;23.314;2023-01-27T10:25:25;94217.59;;;4.49;63.38
70127;BME280;57491;42.694;23.314;2023-01-27T10:27:56;94210.03;;;4.48;65.32
70127;BME280;57491;42.694;23.314;2023-01-27T10:30:30;94218.06;;;4.61;63.31
70127;BME280;57491;42.694;23.314;2023-01-27T10:33:09;94217.44;;;4.59;65.01
70127;BME280;57491;42.694;23.314;2023-01-27T10:35:46;94211.78;;;4.64;66.53
70127;BME280;57491;42.694;23.314;2023-01-27T10:38:24;94209.88;;;4.58;63.05
70127;BME280;57491;42.694;23.314;2023-01-27T10:41:00;94207.00;;;4.20;64.31
70127;BME280;57491;42.694;23.314;2023-01-27T10:43:34;94215.34;;;4.06;64.85
70127;BME280;57491;42.694;23.314;2023-01-27T10:46:13;94210.88;;;4.08;66.11
70127;BME280;57491;42.694;23.314;2023-01-27T10:48:47;94210.03;;;4.24;66.37
70127;BME280;57491;42.694;23.314;2023-01-27T10:51:20;94203.13;;;4.32;63.76
70127;BME280;57491;42.694;23.314;2023-01-27T10:53:54;94202.97;;;4.34;67.11
70127;BME280;57491;42.694;23.314;2023-01-27T10:56:29;94198.00;;;4.40;64.71
70127;BME280;57491;42.694;23.314;2023-01-27T10:59:04;94211.16;;;4.37;64.02
70127;BME280;57491;42.694;23.314;2023-01-27T11:01:34;94216.47;;;4.28;64.01
70127;BME280;57491;42.694;23.314;2023-01-27T11:04:10;94209.06;;;4.33;64.97
70127;BME280;57491;42.694;23.314;2023-01-27T11:06:40;94207.81;;;4.21;63.53
70127;BME280;57491;42.694;23.314;2023-01-27T11:09:17;94208.13;;;4.10;64.09
70127;BME280;57491;42.694;23.314;2023-01-27T11:11:51;94204.09;;;4.15;64.46
70127;BME280;57491;42.694;23.314;2023-01-27T11:14:25;94214.56;;;4.14;63.60
70127;BME280;57491;42.694;23.314;2023-01-27T11:16:58;94204.91;;;3.99;63.69
70127;BME280;57491;42.694;23.314;2023-01-27T11:19:39;94192.06;;;3.91;64.27
70127;BME280;57491;42.694;23.314;2023-01-27T11:22:20;94189.63;;;3.82;64.74
70127;BME280;57491;42.694;23.314;2023-01-27T11:24:54;94187.22;;;3.80;64.50
70127;BME280;57491;42.694;23.314;2023-01-27T11:27:34;94184.97;;;3.85;64.62
70127;BME280;57491;42.694;23.314;2023-01-27T11:30:12;94196.84;;;3.70;64.09
70127;BME280;57491;42.694;23.314;2023-01-27T11:32:48;94185.06;;;3.51;65.16
70127;BME280;57491;42.694;23.314;2023-01-27T11:35:21;94180.41;;;3.47;65.82
70127;BME280;57491;42.694;23.314;2023-01-27T11:37:50;94182.34;;;3.53;65.70
70127;BME280;57491;42.694;23.314;2023-01-27T11:40:23;94185.88;;;3.52;65.48
70127;BME280;57491;42.694;23.314;2023-01-27T11:42:54;94182.34;;;3.45;66.10
70127;BME280;57491;42.694;23.314;2023-01-27T11:45:23;94178.81;;;3.54;66.12
70127;BME280;57491;42.694;23.314;2023-01-27T11:47:51;94181.75;;;3.75;68.69
70127;BME280;57491;42.694;23.314;2023-01-27T11:50:26;94181.13;;;3.81;65.59
70127;BME280;57491;42.694;23.314;2023-01-27T11:53:02;94184.34;;;3.91;65.58
70127;BME280;57491;42.694;23.314;2023-01-27T11:58:46;94176.91;;;3.96;65.05
70127;BME280;57491;42.694;23.314;2023-01-27T12:01:17;94164.72;;;3.82;64.27
70127;BME280;57491;42.694;23.314;2023-01-27T12:03:50;94174.97;;;3.74;64.38
70127;BME280;57491;42.694;23.314;2023-01-27T12:06:29;94175.94;;;3.65;65.38
70127;BME280;57491;42.694;23.314;2023-01-27T12:08:58;94176.75;;;3.57;66.12
70127;BME280;57491;42.694;23.314;2023-01-27T12:11:26;94181.41;;;3.78;68.56
70127;BME280;57491;42.694;23.314;2023-01-27T12:13:56;94173.88;;;3.93;65.76
70127;BME280;57491;42.694;23.314;2023-01-27T12:16:27;94177.25;;;3.85;65.30
70127;BME280;57491;42.694;23.314;2023-01-27T12:19:00;94170.34;;;3.86;64.85
70127;BME280;57491;42.694;23.314;2023-01-27T12:21:42;94170.66;;;3.75;65.33
70127;BME280;57491;42.694;23.314;2023-01-27T12:24:23;94175.31;;;3.87;65.74
70127;BME280;57491;42.694;23.314;2023-01-27T12:26:53;94181.09;;;3.97;64.77
70127;BME280;57491;42.694;23.314;2023-01-27T12:29:26;94177.41;;;4.08;64.55
70127;BME280;57491;42.694;23.314;2023-01-27T12:31:56;94177.59;;;4.23;66.62
70127;BME280;57491;42.694;23.314;2023-01-27T12:34:30;94171.28;;;4.49;68.64
70127;BME280;57491;42.694;23.314;2023-01-27T12:37:01;94173.19;;;4.64;63.82
70127;BME280;57491;42.694;23.314;2023-01-27T12:39:40;94173.16;;;4.56;62.50
70127;BME280;57491;42.694;23.314;2023-01-27T12:42:33;94177.22;;;4.50;61.99
70127;BME280;57491;42.694;23.314;2023-01-27T12:45:17;94172.09;;;4.50;62.50
70127;BME280;57491;42.694;23.314;2023-01-27T12:47:58;94170.78;;;4.46;62.51
70127;BME280;57491;42.694;23.314;2023-01-27T12:50:28;94173.69;;;4.35;62.29
70127;BME280;57491;42.694;23.314;2023-01-27T12:53:10;94180.78;;;4.41;63.85
70127;BME280;57491;42.694;23.314;2023-01-27T12:55:40;94185.56;;;4.52;63.69
70127;BME280;57491;42.694;23.314;2023-01-27T12:58:28;94170.09;;;4.76;66.39
70127;BME280;57491;42.694;23.314;2023-01-27T13:00:58;94172.50;;;4.70;61.82
70127;BME280;57491;42.694;23.314;2023-01-27T13:03:27;94179.75;;;4.66;62.54
70127;BME280;57491;42.694;23.314;2023-01-27T13:05:57;94173.34;;;4.54;63.06
70127;BME280;57491;42.694;23.314;2023-01-27T13:08:27;94174.13;;;4.63;63.65
70127;BME280;57491;42.694;23.314;2023-01-27T13:10:59;94166.22;;;4.64;64.87
70127;BME280;57491;42.694;23.314;2023-01-27T13:13:29;94162.16;;;4.78;65.18
70127;BME280;57491;42.694;23.314;2023-01-27T13:16:01;94167.31;;;4.86;63.57
70127;BME280;57491;42.694;23.314;2023-01-27T13:18:32;94172.50;;;4.70;63.48
70127;BME280;57491;42.694;23.314;2023-01-27T13:21:06;94166.63;;;4.45;64.37
70127;BME280;57491;42.694;23.314;2023-01-27T13:23:38;94165.63;;;4.46;64.45